Time;durP1;ratioP1;P1;durP2;ratioP2;P2;SDS_P1;SDS_P2;PMS_P1;PMS_P2;Temp;Humidity;BMP_temperature;BMP_pressure;BME280_temperature;BME280_humidity;BME280_pressure;Samples;Min_cycle;Max_cycle;Signal;HPM_P1;HPM_P2
2022/03/26 00:01:50;;;;;;;57.53;32.80;;;8.40;99.90;;;;;;5016618;28;20056;-68
2022/03/26 00:04:15;;;;;;;56.75;32.42;;;8.40;99.90;;;;;;5016820;28;20415;-70
2022/03/26 00:06:41;;;;;;;56.17;32.88;;;8.40;99.90;;;;;;5016576;28;20046;-68
2022/03/26 00:09:06;;;;;;;56.10;32.22;;;8.40;99.90;;;;;;5017182;28;20049;-68
2022/03/26 00:11:32;;;;;;;55.00;32.08;;;8.40;99.90;;;;;;5016992;28;20479;-69
2022/03/26 00:13:57;;;;;;;56.20;33.83;;;8.40;99.90;;;;;;5016109;28;20066;-68
2022/03/26 00:16:23;;;;;;;53.42;32.65;;;8.40;99.90;;;;;;5016164;28;20038;-68
2022/03/26 00:18:49;;;;;;;55.72;32.95;;;8.40;99.90;;;;;;5016392;28;20045;-70
2022/03/26 00:21:14;;;;;;;57.42;32.83;;;8.40;99.90;;;;;;5016573;28;20045;-68
2022/03/26 00:23:40;;;;;;;56.25;32.90;;;8.40;99.90;;;;;;5016403;28;20057;-68
2022/03/26 00:26:07;;;;;;;58.70;33.28;;;8.40;99.90;;;;;;4998815;28;20038;-69
2022/03/26 00:28:36;;;;;;;57.05;33.60;;;8.40;99.90;;;;;;5016357;28;20470;-69
2022/03/26 00:31:01;;;;;;;55.45;33.58;;;8.40;99.90;;;;;;5016287;28;20046;-68
2022/03/26 00:33:27;;;;;;;57.10;33.17;;;8.30;99.90;;;;;;5016092;28;20056;-72
2022/03/26 00:35:53;;;;;;;58.58;35.53;;;8.30;99.90;;;;;;5016040;28;20386;-68
2022/03/26 00:38:18;;;;;;;62.17;35.40;;;8.30;99.90;;;;;;5016337;28;20050;-68
2022/03/26 00:40:44;;;;;;;64.57;36.83;;;8.20;99.90;;;;;;5015949;28;20034;-69
2022/03/26 00:43:10;;;;;;;59.53;35.92;;;8.20;99.90;;;;;;5015842;28;20037;-69
2022/03/26 00:45:35;;;;;;;56.72;35.45;;;8.20;99.90;;;;;;5016489;28;20459;-69
2022/03/26 00:48:01;;;;;;;62.17;34.78;;;8.10;99.90;;;;;;5015926;28;20121;-68
2022/03/26 00:50:27;;;;;;;65.13;36.65;;;8.10;99.90;;;;;;5016235;28;20038;-68
2022/03/26 00:52:53;;;;;;;60.95;35.90;;;8.10;99.90;;;;;;5015351;28;20038;-68
2022/03/26 00:55:19;;;;;;;59.72;36.58;;;8.10;99.90;;;;;;5015849;28;20038;-68
2022/03/26 00:57:45;;;;;;;62.30;36.80;;;8.10;99.90;;;;;;5015453;28;20117;-68
2022/03/26 01:00:12;;;;;;;59.55;35.97;;;8.00;99.90;;;;;;4998776;28;20050;-68
2022/03/26 01:02:38;;;;;;;61.95;36.35;;;8.00;99.90;;;;;;5015634;28;20042;-69
2022/03/26 01:05:04;;;;;;;58.05;33.30;;;8.00;99.90;;;;;;5015989;28;20034;-68
2022/03/26 01:07:31;;;;;;;56.55;34.10;;;7.90;99.90;;;;;;5015544;28;20052;-69
2022/03/26 01:09:57;;;;;;;59.38;33.55;;;7.90;99.90;;;;;;5015675;28;20045;-68
2022/03/26 01:12:24;;;;;;;57.83;32.63;;;7.90;99.90;;;;;;5015102;28;20506;-68
2022/03/26 01:14:50;;;;;;;55.35;32.40;;;7.90;99.90;;;;;;5015585;28;20386;-70
2022/03/26 01:17:17;;;;;;;50.45;31.17;;;7.80;99.90;;;;;;5015427;28;20060;-69
2022/03/26 01:19:43;;;;;;;51.28;31.20;;;7.80;99.90;;;;;;5015567;28;20052;-68
2022/03/26 01:22:08;;;;;;;52.40;31.05;;;7.70;99.90;;;;;;5015466;28;20354;-68
2022/03/26 01:24:34;;;;;;;49.10;30.17;;;7.60;99.90;;;;;;5015796;28;20049;-68
2022/03/26 01:27:00;;;;;;;52.25;30.48;;;7.60;99.90;;;;;;5015181;28;20129;-68
2022/03/26 01:29:26;;;;;;;52.08;30.67;;;7.50;99.90;;;;;;5015532;28;20030;-68
2022/03/26 01:31:53;;;;;;;53.83;30.92;;;7.50;99.90;;;;;;5014570;28;20363;-69
2022/03/26 01:34:19;;;;;;;50.17;30.50;;;7.50;99.90;;;;;;5015265;28;20420;-68
2022/03/26 01:36:44;;;;;;;52.28;31.10;;;7.50;99.90;;;;;;5015092;28;20118;-68
2022/03/26 01:39:10;;;;;;;54.78;31.25;;;7.50;99.90;;;;;;5015268;28;20037;-69
2022/03/26 01:41:36;;;;;;;52.78;31.48;;;7.40;99.90;;;;;;5015486;28;20034;-68
2022/03/26 01:44:02;;;;;;;51.70;30.38;;;7.40;99.90;;;;;;5015128;28;20038;-68
2022/03/26 01:46:43;;;;;;;48.42;29.27;;;7.30;99.90;;;;;;5014512;28;20037;-68
2022/03/26 01:49:08;;;;;;;49.67;30.15;;;7.30;99.90;;;;;;5015232;28;20081;-68
2022/03/26 01:51:34;;;;;;;49.22;29.75;;;7.30;99.90;;;;;;5015501;28;20077;-69
2022/03/26 01:54:01;;;;;;;44.90;27.98;;;7.30;99.90;;;;;;5013893;28;20045;-68
2022/03/26 01:56:27;;;;;;;46.53;28.80;;;7.20;99.90;;;;;;5014582;28;20041;-67
2022/03/26 01:58:53;;;;;;;49.78;29.60;;;7.20;99.90;;;;;;5014816;28;20041;-68
2022/03/26 02:01:19;;;;;;;48.70;29.30;;;7.20;99.90;;;;;;5014954;28;20100;-68
2022/03/26 02:03:45;;;;;;;46.03;29.58;;;7.10;99.90;;;;;;5014563;28;20337;-69
2022/03/26 02:06:11;;;;;;;50.78;30.95;;;7.10;99.90;;;;;;5014873;28;20049;-69
2022/03/26 02:08:36;;;;;;;51.03;30.13;;;7.10;99.90;;;;;;5015067;28;20367;-68
2022/03/26 02:11:03;;;;;;;53.08;30.00;;;7.10;99.90;;;;;;5014823;28;20474;-67
2022/03/26 02:13:50;;;;;;;48.78;28.35;;;7.00;99.90;;;;;;5014000;28;20061;-68
2022/03/26 02:16:17;;;;;;;48.13;29.60;;;7.00;99.90;;;;;;5014028;28;20057;-68
2022/03/26 02:18:43;;;;;;;49.20;31.23;;;7.00;99.90;;;;;;4996984;28;20050;-68
2022/03/26 02:21:09;;;;;;;49.38;31.20;;;7.00;99.90;;;;;;5014655;28;20037;-68
2022/03/26 02:23:35;;;;;;;55.40;31.50;;;6.90;99.90;;;;;;5014356;28;20034;-67
2022/03/26 02:26:00;;;;;;;54.42;32.22;;;6.90;99.90;;;;;;5014687;28;20406;-68
2022/03/26 02:28:26;;;;;;;56.10;33.22;;;6.90;99.90;;;;;;4997149;28;20371;-69
2022/03/26 02:30:52;;;;;;;52.47;31.40;;;6.80;99.90;;;;;;5014001;28;20049;-68
2022/03/26 02:33:18;;;;;;;59.38;32.85;;;6.80;99.90;;;;;;5013653;28;20531;-69
2022/03/26 02:35:44;;;;;;;58.67;34.35;;;6.80;99.90;;;;;;5014250;28;20073;-68
2022/03/26 02:38:10;;;;;;;55.28;32.63;;;6.70;99.90;;;;;;5014285;28;20332;-68
2022/03/26 02:40:35;;;;;;;55.65;33.47;;;6.80;99.90;;;;;;5014267;28;20052;-68
2022/03/26 02:43:02;;;;;;;56.97;34.97;;;6.70;99.90;;;;;;5013937;28;20050;-68
2022/03/26 02:45:29;;;;;;;54.08;33.63;;;6.70;99.90;;;;;;5014441;28;20034;-69
2022/03/26 02:47:56;;;;;;;58.08;34.25;;;6.80;99.90;;;;;;5013761;28;20064;-67
2022/03/26 02:50:22;;;;;;;53.28;33.45;;;6.70;99.90;;;;;;4996808;28;20046;-67
2022/03/26 02:52:50;;;;;;;54.05;33.80;;;6.70;99.90;;;;;;5013960;28;20044;-68
2022/03/26 02:55:17;;;;;;;52.95;34.88;;;6.70;99.90;;;;;;5013998;28;20479;-67
2022/03/26 02:57:46;;;;;;;56.58;34.35;;;6.70;99.90;;;;;;5013709;28;20052;-69
2022/03/26 03:00:16;;;;;;;60.58;35.38;;;6.70;99.90;;;;;;5014187;28;20046;-68
2022/03/26 03:02:42;;;;;;;57.63;34.13;;;6.60;99.90;;;;;;5013602;28;20049;-69
2022/03/26 03:05:08;;;;;;;65.65;36.40;;;6.60;99.90;;;;;;4999202;28;20046;-68
2022/03/26 03:07:34;;;;;;;62.28;37.63;;;6.60;99.90;;;;;;5017407;28;20049;-67
2022/03/26 03:09:59;;;;;;;59.13;36.00;;;6.60;99.90;;;;;;5018216;28;20034;-68
2022/03/26 03:12:28;;;;;;;62.22;37.08;;;6.50;99.90;;;;;;5017500;28;20041;-68
2022/03/26 03:14:54;;;;;;;60.95;37.03;;;6.50;99.90;;;;;;5018108;28;20049;-68
2022/03/26 03:17:20;;;;;;;59.72;37.28;;;6.50;99.90;;;;;;5017546;28;20038;-68
2022/03/26 03:19:46;;;;;;;59.95;36.42;;;6.50;99.90;;;;;;5000269;28;20053;-67
2022/03/26 03:22:11;;;;;;;63.75;38.35;;;6.50;99.90;;;;;;5017283;28;20045;-69
2022/03/26 03:24:37;;;;;;;62.72;36.90;;;6.50;99.90;;;;;;5017983;28;20034;-68
2022/03/26 03:27:04;;;;;;;65.72;38.22;;;6.40;99.90;;;;;;5017595;28;20335;-69
2022/03/26 03:29:30;;;;;;;63.47;37.25;;;6.40;99.90;;;;;;5017712;28;20103;-70
2022/03/26 03:31:56;;;;;;;60.25;37.00;;;6.40;99.90;;;;;;5017192;28;20049;-67
2022/03/26 03:34:22;;;;;;;64.45;36.88;;;6.40;99.90;;;;;;5017845;28;20044;-67
2022/03/26 03:36:48;;;;;;;59.17;36.97;;;6.40;99.90;;;;;;5017190;28;20109;-67
2022/03/26 03:39:14;;;;;;;60.22;36.67;;;6.30;99.90;;;;;;5017459;28;20096;-67
2022/03/26 03:41:40;;;;;;;67.03;39.35;;;6.30;99.90;;;;;;5017203;28;20065;-68
2022/03/26 03:44:06;;;;;;;63.25;38.53;;;6.30;99.90;;;;;;5017296;28;20033;-67
2022/03/26 03:46:33;;;;;;;65.55;40.20;;;6.30;99.90;;;;;;5016847;28;20048;-67
2022/03/26 03:49:00;;;;;;;70.47;39.38;;;6.20;99.90;;;;;;5017494;28;20046;-67
2022/03/26 03:51:26;;;;;;;65.97;39.65;;;6.20;99.90;;;;;;5016847;28;20054;-66
2022/03/26 03:53:52;;;;;;;70.55;41.17;;;6.10;99.90;;;;;;5017332;28;20034;-67
2022/03/26 03:56:18;;;;;;;69.07;39.85;;;6.20;99.90;;;;;;5016646;28;20421;-67
2022/03/26 03:58:43;;;;;;;69.82;40.47;;;6.10;99.90;;;;;;5017094;28;20490;-67
2022/03/26 04:01:09;;;;;;;67.57;39.45;;;6.10;99.90;;;;;;5016906;28;20038;-67
2022/03/26 04:03:35;;;;;;;67.97;41.08;;;6.00;99.90;;;;;;5016660;28;20368;-66
2022/03/26 04:06:01;;;;;;;70.50;41.60;;;6.10;99.90;;;;;;5016843;28;20046;-67
2022/03/26 04:08:28;;;;;;;70.72;42.58;;;6.10;99.90;;;;;;5017152;28;20073;-67
2022/03/26 04:10:53;;;;;;;77.18;42.58;;;6.00;99.90;;;;;;5017108;28;20125;-67
2022/03/26 04:13:19;;;;;;;77.40;44.65;;;6.00;99.90;;;;;;5016108;28;20269;-67
2022/03/26 04:15:45;;;;;;;71.75;43.75;;;6.00;99.90;;;;;;5015950;28;20041;-67
2022/03/26 04:18:11;;;;;;;79.68;43.72;;;6.00;99.90;;;;;;5015816;28;20093;-67
2022/03/26 04:20:37;;;;;;;77.53;42.83;;;6.00;99.90;;;;;;5016761;28;20045;-66
2022/03/26 04:23:02;;;;;;;79.57;43.22;;;6.00;99.90;;;;;;5016338;28;20173;-66
2022/03/26 04:25:28;;;;;;;81.18;45.03;;;6.00;99.90;;;;;;5016755;28;20037;-67
2022/03/26 04:27:54;;;;;;;73.50;43.20;;;5.90;99.90;;;;;;5016232;28;20443;-68
2022/03/26 04:30:20;;;;;;;80.60;45.95;;;6.00;99.90;;;;;;5016756;28;20049;-68
2022/03/26 04:32:46;;;;;;;75.78;45.40;;;6.00;99.90;;;;;;5015828;28;20453;-67
2022/03/26 04:35:12;;;;;;;84.47;48.13;;;5.90;99.90;;;;;;5016366;28;20081;-69
2022/03/26 04:37:38;;;;;;;84.13;46.97;;;5.90;99.90;;;;;;5015963;28;20070;-66
2022/03/26 04:40:05;;;;;;;79.95;45.83;;;5.80;99.90;;;;;;5016537;28;20124;-67
2022/03/26 04:42:31;;;;;;;77.55;44.25;;;5.90;99.90;;;;;;5015425;28;20042;-68
2022/03/26 04:44:57;;;;;;;80.82;46.80;;;5.90;99.90;;;;;;5016178;28;20128;-67
2022/03/26 04:47:22;;;;;;;76.93;44.50;;;5.90;99.90;;;;;;5015565;28;20034;-67
2022/03/26 04:49:48;;;;;;;81.03;45.28;;;5.80;99.90;;;;;;5016519;28;20332;-67
2022/03/26 04:52:14;;;;;;;80.45;45.70;;;5.90;99.90;;;;;;5015896;28;20465;-67
2022/03/26 04:54:41;;;;;;;83.00;46.53;;;5.70;99.90;;;;;;5016180;28;20041;-67
2022/03/26 04:57:07;;;;;;;83.15;46.40;;;5.70;99.90;;;;;;5015880;28;20034;-66
2022/03/26 04:59:33;;;;;;;83.70;46.60;;;5.70;99.90;;;;;;5015912;28;20349;-68
2022/03/26 05:01:58;;;;;;;87.05;45.70;;;5.70;99.90;;;;;;5015275;28;20052;-67
2022/03/26 05:04:24;;;;;;;82.25;44.67;;;5.70;99.90;;;;;;4995719;28;20034;-67
2022/03/26 05:06:49;;;;;;;78.22;45.50;;;5.80;99.90;;;;;;5001031;28;20079;-67
2022/03/26 05:09:15;;;;;;;88.57;45.83;;;5.80;99.90;;;;;;5012610;28;20470;-67
2022/03/26 05:11:42;;;;;;;80.68;46.05;;;5.80;99.90;;;;;;5015030;28;20052;-67
2022/03/26 05:14:08;;;;;;;83.47;47.72;;;5.80;99.90;;;;;;5015095;28;20050;-67
2022/03/26 05:16:33;;;;;;;86.50;48.13;;;5.80;99.90;;;;;;5014893;28;20060;-70
2022/03/26 05:18:59;;;;;;;87.03;48.22;;;5.80;99.90;;;;;;5015326;28;20364;-67
2022/03/26 05:21:25;;;;;;;88.95;48.53;;;5.80;99.90;;;;;;5014948;28;20370;-67
2022/03/26 05:23:51;;;;;;;84.88;48.00;;;5.80;99.90;;;;;;5014703;28;20466;-68
2022/03/26 05:26:18;;;;;;;91.07;52.08;;;5.80;99.90;;;;;;5015084;28;20088;-67
2022/03/26 05:28:44;;;;;;;91.50;51.53;;;5.80;99.90;;;;;;5014986;28;20069;-70
2022/03/26 05:31:10;;;;;;;91.97;52.38;;;5.80;99.90;;;;;;5014913;28;20042;-66
2022/03/26 05:33:36;;;;;;;97.75;53.10;;;5.70;99.90;;;;;;5014742;28;20048;-69
2022/03/26 05:36:02;;;;;;;94.78;52.08;;;5.70;99.90;;;;;;5014275;28;20399;-69
2022/03/26 05:38:28;;;;;;;92.57;51.88;;;5.70;99.90;;;;;;5015144;28;20112;-68
2022/03/26 05:40:53;;;;;;;97.47;52.97;;;5.70;99.90;;;;;;5015400;28;20164;-67
2022/03/26 05:43:19;;;;;;;90.20;52.78;;;5.70;99.90;;;;;;5015303;28;20038;-67
2022/03/26 05:45:45;;;;;;;99.50;52.03;;;5.70;99.90;;;;;;5015320;28;20434;-67
2022/03/26 05:48:10;;;;;;;99.22;53.97;;;5.70;99.90;;;;;;5014731;28;20501;-68
2022/03/26 05:50:36;;;;;;;98.43;54.53;;;5.70;99.90;;;;;;5015213;28;20038;-67
2022/03/26 05:53:02;;;;;;;105.10;54.20;;;5.80;99.90;;;;;;5014517;28;20508;-68
2022/03/26 05:55:28;;;;;;;108.53;57.08;;;5.80;99.90;;;;;;5014905;28;20050;-67
2022/03/26 05:57:55;;;;;;;105.85;55.22;;;6.00;99.90;;;;;;5014597;28;20332;-67
2022/03/26 06:00:21;;;;;;;114.95;60.30;;;6.20;99.90;;;;;;5015047;28;20108;-66
2022/03/26 06:02:47;;;;;;;120.78;63.42;;;6.40;99.90;;;;;;5014552;28;20123;-67
2022/03/26 06:05:13;;;;;;;114.32;60.63;;;6.70;99.90;;;;;;4997342;28;20385;-67
2022/03/26 06:07:38;;;;;;;119.50;64.32;;;6.90;99.90;;;;;;5014640;28;20038;-66
2022/03/26 06:10:05;;;;;;;118.25;61.45;;;7.20;99.90;;;;;;4997436;28;20046;-66
2022/03/26 06:12:30;;;;;;;120.88;62.80;;;7.30;99.90;;;;;;5013909;28;20081;-67
2022/03/26 06:14:56;;;;;;;114.95;60.28;;;7.40;99.90;;;;;;5014594;28;20469;-67
2022/03/26 06:17:22;;;;;;;114.00;60.35;;;7.40;99.90;;;;;;5013723;28;20050;-67
2022/03/26 06:19:48;;;;;;;115.45;58.05;;;7.50;99.90;;;;;;5014637;28;20084;-67
2022/03/26 06:22:13;;;;;;;119.75;59.72;;;7.50;99.90;;;;;;5014388;28;20084;-70
2022/03/26 06:24:42;;;;;;;107.38;57.83;;;7.70;99.90;;;;;;5014785;28;20439;-66
2022/03/26 06:27:07;;;;;;;113.10;55.67;;;7.90;99.90;;;;;;5014582;28;20044;-67
2022/03/26 06:29:33;;;;;;;113.22;58.63;;;8.20;99.90;;;;;;5014731;28;20121;-66
2022/03/26 06:32:01;;;;;;;112.32;58.03;;;8.40;99.90;;;;;;5013771;28;20419;-67
2022/03/26 06:34:27;;;;;;;111.85;59.35;;;8.70;99.90;;;;;;5014197;28;20459;-67
2022/03/26 06:36:53;;;;;;;109.78;57.65;;;9.00;99.90;;;;;;5013746;28;20057;-68
2022/03/26 06:39:18;;;;;;;107.95;57.90;;;9.10;99.90;;;;;;5013755;28;20042;-68
2022/03/26 06:41:44;;;;;;;117.20;59.47;;;9.20;99.90;;;;;;5014224;28;20100;-67
2022/03/26 06:44:10;;;;;;;118.40;59.65;;;9.40;99.90;;;;;;4996936;28;20053;-68
2022/03/26 06:46:37;;;;;;;112.05;59.90;;;9.50;99.90;;;;;;5013632;28;20042;-67
2022/03/26 06:49:04;;;;;;;111.15;61.05;;;9.60;99.90;;;;;;5014884;28;20136;-69
2022/03/26 06:51:30;;;;;;;110.72;60.35;;;9.80;99.90;;;;;;5013578;28;20092;-67
2022/03/26 06:53:55;;;;;;;108.70;58.22;;;10.00;99.90;;;;;;5014240;28;20084;-67
2022/03/26 06:56:21;;;;;;;109.68;59.38;;;10.10;99.90;;;;;;5013298;28;20132;-67
2022/03/26 06:58:47;;;;;;;106.55;57.60;;;10.20;99.90;;;;;;5014201;28;20045;-66
2022/03/26 07:01:12;;;;;;;108.35;61.60;;;10.00;99.90;;;;;;5013559;28;20513;-69
2022/03/26 07:03:38;;;;;;;119.28;61.63;;;9.90;99.90;;;;;;5012203;28;20125;-67
2022/03/26 07:06:04;;;;;;;112.88;60.28;;;9.80;99.90;;;;;;4999911;28;20041;-69
2022/03/26 07:08:30;;;;;;;112.43;61.33;;;9.70;99.90;;;;;;5001809;28;20042;-68
2022/03/26 07:10:56;;;;;;;116.18;61.63;;;9.70;99.90;;;;;;5012328;28;20038;-66
2022/03/26 07:13:21;;;;;;;112.85;60.75;;;9.90;99.90;;;;;;5006268;28;20527;-68
2022/03/26 07:15:48;;;;;;;117.60;60.63;;;9.90;99.90;;;;;;5003767;28;20134;-68
2022/03/26 07:18:15;;;;;;;109.47;58.72;;;9.90;99.90;;;;;;4996229;28;20340;-66
2022/03/26 07:20:41;;;;;;;108.47;60.50;;;10.00;99.90;;;;;;5013674;28;20037;-65
2022/03/26 07:23:06;;;;;;;109.75;60.17;;;10.10;99.90;;;;;;5013035;28;20030;-65
2022/03/26 07:25:33;;;;;;;108.05;59.00;;;10.20;99.90;;;;;;4995554;28;20124;-65
2022/03/26 07:27:59;;;;;;;111.03;58.40;;;10.10;99.90;;;;;;5012683;28;20100;-66
2022/03/26 07:30:25;;;;;;;111.00;56.92;;;10.20;99.90;;;;;;5013096;28;20038;-66
2022/03/26 07:32:50;;;;;;;107.60;57.58;;;10.20;99.90;;;;;;5012459;28;20057;-65
2022/03/26 07:35:16;;;;;;;102.18;56.10;;;10.30;99.90;;;;;;5013452;28;20057;-66
2022/03/26 07:37:43;;;;;;;101.63;53.92;;;10.30;99.90;;;;;;5013219;28;20162;-67
2022/03/26 07:40:10;;;;;;;99.90;55.47;;;10.30;99.90;;;;;;5013737;28;20050;-65
2022/03/26 07:42:36;;;;;;;98.93;55.15;;;10.40;99.90;;;;;;5013317;28;20355;-66
2022/03/26 07:45:03;;;;;;;97.68;55.03;;;10.50;99.90;;;;;;5013655;28;20046;-65
2022/03/26 07:47:29;;;;;;;106.55;55.42;;;10.50;99.90;;;;;;5013179;28;20124;-65
2022/03/26 07:49:54;;;;;;;95.28;52.65;;;10.60;99.90;;;;;;5013854;28;20139;-66
2022/03/26 07:52:20;;;;;;;98.22;53.22;;;10.60;99.90;;;;;;5016713;28;20355;-66
2022/03/26 07:54:45;;;;;;;102.28;53.55;;;10.70;99.90;;;;;;5016939;28;20034;-65
2022/03/26 07:57:11;;;;;;;99.25;53.95;;;10.80;99.90;;;;;;4998986;28;20057;-68
2022/03/26 07:59:37;;;;;;;103.03;56.25;;;10.80;99.90;;;;;;5017490;28;20038;-65
2022/03/26 08:02:02;;;;;;;97.15;52.90;;;10.80;99.90;;;;;;5016610;28;20130;-65
2022/03/26 08:04:28;;;;;;;93.78;53.00;;;10.90;99.90;;;;;;5017287;28;20038;-65
2022/03/26 08:06:54;;;;;;;93.40;51.50;;;11.00;99.90;;;;;;5016899;28;20363;-66
2022/03/26 08:09:20;;;;;;;91.75;51.35;;;11.00;99.90;;;;;;5017290;28;20077;-66
2022/03/26 08:11:45;;;;;;;91.53;50.42;;;11.10;99.90;;;;;;5016396;28;20042;-66
2022/03/26 08:14:12;;;;;;;92.85;50.47;;;11.20;99.90;;;;;;4992742;28;20047;-65
2022/03/26 08:16:38;;;;;;;97.78;52.25;;;11.20;99.90;;;;;;5003213;28;20053;-67
2022/03/26 08:19:04;;;;;;;82.85;46.03;;;11.30;99.90;;;;;;5016371;28;20375;-65
2022/03/26 08:21:32;;;;;;;82.18;47.58;;;11.30;99.90;;;;;;5016554;28;20044;-65
2022/03/26 08:23:58;;;;;;;85.85;47.33;;;11.40;99.90;;;;;;5016416;28;20450;-66
2022/03/26 08:26:26;;;;;;;80.82;45.47;;;11.60;99.90;;;;;;5016194;28;20033;-65
2022/03/26 08:28:53;;;;;;;89.70;47.10;;;11.60;99.90;;;;;;5016702;28;20049;-66
2022/03/26 08:31:20;;;;;;;83.25;46.85;;;11.80;99.90;;;;;;5016124;28;20360;-66
2022/03/26 08:33:46;;;;;;;79.03;45.03;;;11.80;99.90;;;;;;4998688;28;20045;-66
2022/03/26 08:36:13;;;;;;;89.40;44.50;;;12.00;99.90;;;;;;5015931;28;20367;-66
2022/03/26 08:38:39;;;;;;;74.55;44.25;;;12.00;99.90;;;;;;5016116;28;20128;-65
2022/03/26 08:41:05;;;;;;;74.18;42.03;;;12.10;99.90;;;;;;5016261;28;20049;-65
2022/03/26 08:43:31;;;;;;;74.32;42.97;;;12.20;99.90;;;;;;5016353;28;20031;-65
2022/03/26 08:45:57;;;;;;;76.53;41.28;;;12.30;99.90;;;;;;5016106;28;20046;-66
2022/03/26 08:48:23;;;;;;;68.40;39.72;;;12.40;99.90;;;;;;5015813;28;20091;-65
2022/03/26 08:50:49;;;;;;;68.07;36.58;;;12.50;99.90;;;;;;5016105;28;20112;-65
2022/03/26 08:53:15;;;;;;;61.00;33.72;;;12.70;99.90;;;;;;5015748;28;20067;-65
2022/03/26 08:55:41;;;;;;;62.63;35.13;;;12.70;99.90;;;;;;5015866;28;20125;-65
2022/03/26 08:58:10;;;;;;;61.78;35.85;;;12.90;99.90;;;;;;5015553;28;20046;-67
2022/03/26 09:00:36;;;;;;;60.03;32.45;;;13.10;99.90;;;;;;4998580;28;20046;-69
2022/03/26 09:03:03;;;;;;;59.83;33.38;;;13.30;99.90;;;;;;4997728;28;20053;-66
2022/03/26 09:05:28;;;;;;;62.30;32.53;;;13.50;99.90;;;;;;5015915;28;20088;-66
2022/03/26 09:07:54;;;;;;;55.60;32.42;;;13.50;99.90;;;;;;5014620;28;20061;-66
2022/03/26 09:10:20;;;;;;;52.88;32.22;;;13.60;99.90;;;;;;5015761;28;20109;-66
2022/03/26 09:12:47;;;;;;;53.10;30.73;;;13.50;99.90;;;;;;5014367;28;20133;-68
2022/03/26 09:15:13;;;;;;;53.75;29.70;;;13.50;99.90;;;;;;5015167;28;20060;-67
2022/03/26 09:17:39;;;;;;;51.40;29.65;;;13.70;99.90;;;;;;5014921;28;20451;-66
2022/03/26 09:20:06;;;;;;;54.72;29.88;;;13.70;99.90;;;;;;4997574;28;20045;-65
2022/03/26 09:22:32;;;;;;;50.60;28.90;;;13.80;99.90;;;;;;5014708;28;20120;-66
2022/03/26 09:24:58;;;;;;;52.42;28.30;;;13.90;99.90;;;;;;4997991;28;20037;-66
2022/03/26 09:27:24;;;;;;;54.42;30.92;;;14.00;99.90;;;;;;5014948;28;20482;-66
2022/03/26 09:29:50;;;;;;;51.70;28.90;;;14.10;99.90;;;;;;5015376;28;20030;-67
2022/03/26 09:32:16;;;;;;;51.03;29.55;;;14.00;99.80;;;;;;5014819;28;20052;-65
2022/03/26 09:34:42;;;;;;;50.55;29.25;;;14.10;99.50;;;;;;5015419;28;20042;-66
2022/03/26 09:37:08;;;;;;;61.25;29.55;;;14.20;99.90;;;;;;4997394;28;20067;-68
2022/03/26 09:39:34;;;;;;;48.05;28.45;;;14.40;99.00;;;;;;5015496;28;20046;-68
2022/03/26 09:42:00;;;;;;;59.97;31.17;;;14.40;98.90;;;;;;5013596;28;20107;-65
2022/03/26 09:44:26;;;;;;;59.05;30.48;;;14.50;98.90;;;;;;5013846;28;20034;-66
2022/03/26 09:46:52;;;;;;;56.88;30.35;;;14.50;99.10;;;;;;5013708;28;20030;-67
2022/03/26 09:49:17;;;;;;;52.10;28.77;;;14.60;99.20;;;;;;5013721;28;20494;-68
2022/03/26 09:51:43;;;;;;;51.47;28.63;;;14.60;99.30;;;;;;5013706;28;20052;-67
2022/03/26 09:54:12;;;;;;;52.13;29.95;;;14.70;99.20;;;;;;5014843;28;20042;-66
2022/03/26 09:56:39;;;;;;;50.95;29.77;;;14.80;98.90;;;;;;4996378;28;20383;-67
2022/03/26 09:59:05;;;;;;;50.28;28.27;;;14.80;98.50;;;;;;5014847;28;20371;-66
2022/03/26 10:01:30;;;;;;;50.85;28.35;;;14.90;98.60;;;;;;4997406;28;20049;-66
2022/03/26 10:04:13;;;;;;;48.80;27.85;;;14.90;98.30;;;;;;4997067;28;20068;-66
2022/03/26 10:06:53;;;;;;;49.63;28.17;;;15.30;97.70;;;;;;5013805;28;20356;-67
2022/03/26 10:09:37;;;;;;;50.55;28.73;;;15.30;97.00;;;;;;5014502;28;20352;-66
2022/03/26 10:12:21;;;;;;;47.22;27.20;;;15.50;95.80;;;;;;5014743;28;20050;-66
2022/03/26 10:14:57;;;;;;;44.88;24.67;;;15.50;95.80;;;;;;5014050;28;20053;-66
2022/03/26 10:17:36;;;;;;;43.53;21.55;;;15.60;96.00;;;;;;5014027;28;20042;-66
2022/03/26 10:20:10;;;;;;;41.33;22.88;;;15.60;95.70;;;;;;5014417;28;20041;-66
2022/03/26 10:22:44;;;;;;;44.15;21.80;;;15.60;95.40;;;;;;5014371;28;20092;-67
2022/03/26 10:25:15;;;;;;;38.70;21.73;;;15.50;95.70;;;;;;5014839;28;20072;-66
2022/03/26 10:27:43;;;;;;;36.65;22.08;;;15.50;96.10;;;;;;4997214;28;20050;-67
2022/03/26 10:30:11;;;;;;;37.60;21.95;;;15.70;96.20;;;;;;5014695;28;20060;-66
2022/03/26 10:32:57;;;;;;;41.88;21.17;;;16.00;96.10;;;;;;5014248;28;20042;-66
2022/03/26 10:35:25;;;;;;;31.20;20.05;;;15.90;96.20;;;;;;4997293;28;20053;-66
2022/03/26 10:37:59;;;;;;;33.70;19.58;;;15.90;96.80;;;;;;5013957;28;20049;-68
2022/03/26 10:40:25;;;;;;;;;;;16.00;96.80;;;;;;5015165;28;20061;-66
2022/03/26 10:43:11;;;;;;;37.63;19.02;;;16.00;97.00;;;;;;4996816;28;19918;-68
2022/03/26 10:46:00;;;;;;;34.20;19.67;;;15.90;97.50;;;;;;5014462;28;20034;-67
2022/03/26 10:48:33;;;;;;;24.80;16.73;;;16.00;97.70;;;;;;5014005;28;20121;-67
2022/03/26 10:51:06;;;;;;;27.83;18.58;;;15.90;98.00;;;;;;5014078;28;20083;-67
2022/03/26 10:53:36;;;;;;;32.17;19.67;;;15.90;98.30;;;;;;4996964;28;20475;-67
2022/03/26 10:56:04;;;;;;;32.88;19.65;;;16.10;98.40;;;;;;4996626;28;20128;-67
2022/03/26 10:58:31;;;;;;;33.10;18.90;;;16.10;98.50;;;;;;4996535;28;20046;-68
2022/03/26 11:00:57;;;;;;;33.75;19.63;;;16.50;98.20;;;;;;5013897;28;20066;-66
2022/03/26 11:03:24;;;;;;;31.63;20.25;;;16.60;98.20;;;;;;5014057;28;20041;-67
2022/03/26 11:05:54;;;;;;;35.45;21.05;;;16.60;98.20;;;;;;4996300;28;20056;-67
2022/03/26 11:08:20;;;;;;;29.88;19.92;;;16.70;98.50;;;;;;4995684;28;20045;-66
2022/03/26 11:10:46;;;;;;;31.15;20.27;;;16.80;98.50;;;;;;5013919;28;20050;-67
2022/03/26 11:13:12;;;;;;;25.95;18.70;;;16.90;98.70;;;;;;5013628;28;20092;-69
2022/03/26 11:15:53;;;;;;;37.00;19.83;;;16.80;99.20;;;;;;5014258;28;20124;-68
2022/03/26 11:18:33;;;;;;;35.17;20.30;;;16.80;99.70;;;;;;4978633;28;20133;-66
2022/03/26 11:21:19;;;;;;;28.27;19.75;;;16.80;99.90;;;;;;4977191;28;20042;-67
2022/03/26 11:23:47;;;;;;;29.02;20.30;;;16.70;99.90;;;;;;5011315;28;20100;-66
2022/03/26 11:26:35;;;;;;;29.23;18.77;;;16.70;99.90;;;;;;4998468;28;20081;-68
2022/03/26 11:29:37;;;;;;;22.58;14.23;;;16.60;99.90;;;;;;4998396;28;20042;-68
2022/03/26 11:32:25;;;;;;;26.45;17.80;;;16.80;99.80;;;;;;4980530;28;20068;-66
2022/03/26 11:35:03;;;;;;;26.00;17.77;;;17.00;99.70;;;;;;5011073;28;20475;-67
2022/03/26 11:37:29;;;;;;;25.58;16.95;;;17.20;99.30;;;;;;4999804;28;20092;-67
2022/03/26 11:39:58;;;;;;;26.85;18.38;;;17.40;99.00;;;;;;5016790;28;20510;-69
2022/03/26 11:42:35;;;;;;;27.23;18.27;;;17.50;98.70;;;;;;5016974;28;20342;-66
2022/03/26 11:51:13;;;;;;;27.50;17.33;;;17.60;98.50;;;;;;5016890;28;20046;-67
2022/03/26 11:53:41;;;;;;;27.13;17.20;;;17.60;98.70;;;;;;4999951;28;20077;-67
2022/03/26 11:56:20;;;;;;;26.67;17.48;;;17.50;99.00;;;;;;5017088;28;20108;-66
2022/03/26 11:59:03;;;;;;;20.50;13.52;;;17.60;98.80;;;;;;4995853;28;20447;-68
2022/03/26 12:01:40;;;;;;;24.97;15.77;;;17.80;98.20;;;;;;4998411;28;20079;-68
2022/03/26 12:04:13;;;;;;;26.02;17.58;;;17.70;98.50;;;;;;5016736;28;20044;-68
2022/03/26 12:06:49;;;;;;;31.05;18.88;;;17.70;98.80;;;;;;4995164;28;20034;-67
2022/03/26 12:09:34;;;;;;;23.98;17.42;;;17.60;99.20;;;;;;5016641;28;20049;-68
2022/03/26 12:12:10;;;;;;;24.90;15.38;;;17.60;99.00;;;;;;5015938;28;20050;-68
2022/03/26 12:15:01;;;;;;;28.58;16.05;;;17.70;98.60;;;;;;4999415;28;20073;-68
2022/03/26 12:17:45;;;;;;;22.83;15.02;;;17.80;98.40;;;;;;4995150;28;20100;-68
2022/03/26 12:20:23;;;;;;;22.92;15.20;;;18.00;98.00;;;;;;5014991;28;20038;-70
2022/03/26 12:23:13;;;;;;;22.80;16.65;;;17.80;98.40;;;;;;4979886;28;20436;-68
2022/03/26 12:25:50;;;;;;;22.38;15.20;;;17.50;98.60;;;;;;5016505;28;20061;-69
2022/03/26 12:28:24;;;;;;;23.77;15.35;;;17.40;98.90;;;;;;5016174;28;20052;-69
2022/03/26 12:30:55;;;;;;;22.10;15.98;;;17.90;98.10;;;;;;5007120;28;20050;-67
2022/03/26 12:33:23;;;;;;;22.73;17.00;;;17.90;98.30;;;;;;4995068;28;20125;-69
2022/03/26 12:35:52;;;;;;;21.77;14.82;;;17.40;98.80;;;;;;4997020;28;20046;-68
2022/03/26 12:38:20;;;;;;;20.13;14.70;;;17.60;99.00;;;;;;5011643;28;20045;-68
2022/03/26 12:40:57;;;;;;;21.27;15.20;;;17.80;98.70;;;;;;5015783;28;20045;-68